Time;durP1;ratioP1;P1;durP2;ratioP2;P2;SDS_P1;SDS_P2;PMS_P1;PMS_P2;Temp;Humidity;BMP_temperature;BMP_pressure;BME280_temperature;BME280_humidity;BME280_pressure;Samples;Min_cycle;Max_cycle;Signal;HPM_P1;HPM_P2
2021/05/13 00:02:13;;;;;;;2.13;0.65;;;9.70;99.90;;;;;;5002335;28;20039;-78
2021/05/13 00:04:38;;;;;;;3.30;0.70;;;9.60;99.90;;;;;;4985978;28;20031;-79
2021/05/13 00:07:04;;;;;;;2.72;0.60;;;9.50;99.90;;;;;;4986143;28;20035;-78
2021/05/13 00:09:31;;;;;;;1.90;0.70;;;9.40;99.90;;;;;;4987064;28;20041;-78
2021/05/13 00:11:57;;;;;;;2.88;0.70;;;9.20;99.90;;;;;;4987121;28;20031;-78
2021/05/13 00:14:23;;;;;;;4.32;0.90;;;9.30;99.90;;;;;;4987270;28;20041;-78
2021/05/13 00:16:49;;;;;;;3.10;0.70;;;9.20;99.90;;;;;;4986957;28;20391;-78
2021/05/13 00:19:15;;;;;;;3.50;0.68;;;9.30;99.90;;;;;;4986821;28;20126;-78
2021/05/13 00:21:42;;;;;;;3.75;0.70;;;9.30;99.90;;;;;;4969625;28;20462;-78
2021/05/13 00:24:10;;;;;;;2.00;0.60;;;9.30;99.90;;;;;;4985813;28;20490;-78
2021/05/13 00:29:10;;;;;;;2.35;0.50;;;9.30;99.90;;;;;;4986919;28;20483;-78
2021/05/13 00:31:36;;;;;;;3.10;0.70;;;9.40;99.90;;;;;;4969429;28;20058;-78
2021/05/13 00:34:03;;;;;;;1.70;0.47;;;9.40;99.90;;;;;;4985685;28;20424;-78
2021/05/13 00:36:30;;;;;;;3.90;0.50;;;9.50;99.90;;;;;;4986462;28;20049;-78
2021/05/13 00:38:56;;;;;;;2.97;0.50;;;9.50;99.90;;;;;;5001742;28;20046;-78
2021/05/13 00:41:21;;;;;;;2.72;0.52;;;9.50;99.90;;;;;;4985534;28;20035;-78
2021/05/13 00:43:47;;;;;;;3.30;0.95;;;9.50;99.90;;;;;;4986789;28;20045;-78
2021/05/13 00:46:12;;;;;;;2.22;0.50;;;9.50;99.90;;;;;;5001496;28;20041;-77
2021/05/13 00:48:40;;;;;;;4.15;0.50;;;9.50;99.90;;;;;;5001645;28;20055;-78
2021/05/13 00:51:07;;;;;;;4.57;0.50;;;9.50;99.90;;;;;;4969310;28;20102;-78
2021/05/13 00:53:33;;;;;;;2.83;0.50;;;9.50;99.90;;;;;;4986739;28;20098;-78
2021/05/13 00:55:59;;;;;;;4.75;0.77;;;9.40;99.90;;;;;;4986463;28;20489;-77
2021/05/13 00:58:27;;;;;;;3.72;0.60;;;9.50;99.90;;;;;;5001592;28;20037;-77
2021/05/13 01:03:21;;;;;;;4.43;0.65;;;9.50;99.90;;;;;;4986664;28;20090;-78
2021/05/13 01:06:09;;;;;;;6.13;0.65;;;9.50;99.90;;;;;;4986254;28;20035;-77
2021/05/13 01:08:35;;;;;;;3.35;0.63;;;9.40;99.90;;;;;;4926643;29;20036;-78
2021/05/13 01:11:01;;;;;;;4.32;0.60;;;9.40;99.90;;;;;;4910843;29;20045;-78
2021/05/13 01:13:28;;;;;;;3.03;0.60;;;9.20;99.90;;;;;;4910883;29;20047;-78
2021/05/13 01:16:07;;;;;;;3.05;0.70;;;9.20;99.90;;;;;;4895197;29;20043;-78
2021/05/13 01:18:33;;;;;;;1.45;0.50;;;9.10;99.90;;;;;;4913972;29;20056;-78
2021/05/13 01:20:59;;;;;;;5.53;0.50;;;9.20;99.90;;;;;;4914403;29;20527;-78
2021/05/13 01:23:25;;;;;;;2.88;0.50;;;9.20;99.90;;;;;;4914642;29;20036;-78
2021/05/13 01:25:53;;;;;;;3.50;0.60;;;9.20;99.90;;;;;;4931670;29;20048;-78
2021/05/13 01:28:21;;;;;;;3.03;0.50;;;9.20;99.90;;;;;;4949053;29;20046;-78
2021/05/13 01:30:49;;;;;;;3.70;0.80;;;9.10;99.90;;;;;;4949096;29;20041;-78
2021/05/13 01:33:17;;;;;;;2.38;0.65;;;9.00;99.90;;;;;;4948987;29;20039;-78
2021/05/13 01:35:43;;;;;;;3.15;0.57;;;8.70;99.90;;;;;;4917150;29;20095;-78
2021/05/13 01:38:16;;;;;;;2.78;0.50;;;8.70;99.90;;;;;;4916937;29;20048;-78
2021/05/13 01:40:53;;;;;;;3.03;0.57;;;8.60;99.90;;;;;;4933098;29;20500;-78
2021/05/13 01:43:19;;;;;;;4.35;0.60;;;8.70;99.90;;;;;;4948983;29;20038;-78
2021/05/13 01:45:45;;;;;;;3.78;0.57;;;8.60;99.90;;;;;;4971740;28;20046;-78
2021/05/13 01:48:11;;;;;;;2.67;0.80;;;8.60;99.90;;;;;;5004586;28;20094;-78
2021/05/13 01:50:37;;;;;;;2.97;0.60;;;8.60;99.90;;;;;;4988405;28;20034;-78
2021/05/13 01:53:05;;;;;;;3.42;0.98;;;8.50;99.90;;;;;;4989640;28;20103;-78
2021/05/13 01:55:31;;;;;;;2.65;0.80;;;8.40;99.90;;;;;;4989812;28;20094;-78
2021/05/13 01:57:57;;;;;;;1.83;0.55;;;8.30;99.90;;;;;;4989356;28;20043;-78
2021/05/13 02:00:23;;;;;;;2.38;0.70;;;8.30;99.90;;;;;;5004658;28;20123;-78
2021/05/13 02:02:50;;;;;;;5.38;0.70;;;8.40;99.90;;;;;;4988246;28;20035;-78
2021/05/13 02:05:17;;;;;;;4.60;0.50;;;8.40;99.90;;;;;;5004617;28;20546;-78
2021/05/13 02:07:43;;;;;;;2.10;0.60;;;8.40;99.90;;;;;;4987639;28;20065;-79
2021/05/13 02:10:12;;;;;;;4.15;0.60;;;8.30;99.90;;;;;;4989443;28;20118;-78
2021/05/13 02:12:39;;;;;;;2.38;0.60;;;8.30;99.90;;;;;;5004348;28;20063;-78
2021/05/13 02:15:07;;;;;;;2.92;0.60;;;8.20;99.90;;;;;;5004588;28;20037;-78
2021/05/13 02:17:32;;;;;;;3.28;0.90;;;8.20;99.90;;;;;;4987797;28;20046;-79
2021/05/13 02:19:58;;;;;;;2.47;0.70;;;8.20;99.90;;;;;;4989033;28;20098;-78
2021/05/13 02:22:24;;;;;;;4.70;0.70;;;8.10;99.90;;;;;;5003999;28;20065;-79
2021/05/13 02:24:50;;;;;;;2.00;0.73;;;8.10;99.90;;;;;;4987866;28;20434;-78
2021/05/13 02:27:15;;;;;;;2.78;0.60;;;8.10;99.90;;;;;;4987702;28;20130;-78
2021/05/13 02:29:41;;;;;;;5.20;0.90;;;8.10;99.90;;;;;;5003124;28;20118;-78
2021/05/13 02:32:07;;;;;;;2.83;0.60;;;8.20;99.90;;;;;;4987882;28;20089;-78
2021/05/13 02:34:32;;;;;;;4.20;0.60;;;8.20;99.90;;;;;;4987942;28;20086;-78
2021/05/13 02:36:58;;;;;;;2.00;0.60;;;8.20;99.90;;;;;;5003431;28;20113;-78
2021/05/13 02:39:24;;;;;;;2.08;0.73;;;8.10;99.90;;;;;;5003686;28;20027;-78
2021/05/13 02:41:49;;;;;;;3.28;0.70;;;8.10;99.90;;;;;;4987680;28;20041;-78
2021/05/13 02:44:17;;;;;;;2.30;0.57;;;8.10;99.90;;;;;;4987561;28;20099;-78
2021/05/13 02:46:43;;;;;;;3.22;0.70;;;8.00;99.90;;;;;;4987433;28;20031;-78
2021/05/13 02:49:09;;;;;;;2.97;0.60;;;7.90;99.90;;;;;;4987283;28;20422;-78
2021/05/13 02:51:34;;;;;;;4.22;0.60;;;7.90;99.90;;;;;;5003684;28;20459;-78
2021/05/13 02:54:00;;;;;;;1.90;0.57;;;7.90;99.90;;;;;;4987429;28;20027;-78
2021/05/13 02:56:25;;;;;;;2.92;0.50;;;7.80;99.90;;;;;;4988536;28;20056;-78
2021/05/13 02:58:52;;;;;;;1.52;0.50;;;7.80;99.90;;;;;;4987143;28;20046;-78
2021/05/13 03:01:25;;;;;;;3.45;0.50;;;7.80;99.90;;;;;;4987380;28;20035;-79
2021/05/13 03:03:52;;;;;;;2.85;0.70;;;7.60;99.90;;;;;;5003515;28;20095;-78
2021/05/13 03:06:18;;;;;;;1.75;0.60;;;7.70;99.90;;;;;;5003159;28;20037;-78
2021/05/13 03:08:44;;;;;;;3.17;0.60;;;7.70;99.90;;;;;;5002969;28;20062;-78
2021/05/13 03:11:10;;;;;;;9.25;0.98;;;7.80;99.90;;;;;;4989962;28;20045;-78
2021/05/13 03:13:36;;;;;;;3.70;0.50;;;7.70;99.90;;;;;;5004586;28;20038;-78
2021/05/13 03:16:02;;;;;;;1.40;0.50;;;7.70;99.90;;;;;;4972459;28;20031;-78
2021/05/13 03:18:30;;;;;;;2.70;0.73;;;7.60;99.90;;;;;;4987208;28;20074;-78
2021/05/13 03:21:03;;;;;;;4.28;0.60;;;7.50;99.90;;;;;;4987091;28;20035;-79
2021/05/13 03:23:39;;;;;;;3.63;0.80;;;7.50;99.90;;;;;;4988149;28;20034;-78
2021/05/13 03:26:05;;;;;;;3.67;0.82;;;7.50;99.90;;;;;;5003025;28;20042;-78
2021/05/13 03:28:30;;;;;;;2.78;0.70;;;7.40;99.90;;;;;;4988168;28;20034;-78
2021/05/13 03:30:56;;;;;;;4.03;0.90;;;7.50;99.90;;;;;;4986789;28;20031;-78
2021/05/13 03:33:22;;;;;;;2.58;0.75;;;7.50;99.90;;;;;;5003117;28;20069;-78
2021/05/13 03:35:47;;;;;;;3.25;0.70;;;7.50;99.90;;;;;;4986557;28;20082;-79
2021/05/13 03:38:13;;;;;;;2.00;0.60;;;7.40;99.90;;;;;;5002542;28;20070;-78
2021/05/13 03:40:41;;;;;;;2.88;0.80;;;7.40;99.90;;;;;;4987674;28;20034;-79
2021/05/13 03:43:07;;;;;;;3.13;0.68;;;7.40;99.90;;;;;;4987847;28;20395;-78
2021/05/13 03:45:34;;;;;;;1.85;0.60;;;7.30;99.90;;;;;;4970406;28;20035;-78
2021/05/13 03:48:02;;;;;;;2.13;0.60;;;7.30;99.90;;;;;;5001952;22;20035;-79
2021/05/13 03:50:36;;;;;;;3.33;0.55;;;7.30;99.90;;;;;;5006716;28;20043;-79
2021/05/13 03:53:03;;;;;;;2.30;0.50;;;7.30;99.90;;;;;;5006201;28;20030;-79
2021/05/13 03:55:28;;;;;;;1.60;0.60;;;7.20;99.90;;;;;;5022409;28;20035;-79
2021/05/13 03:57:56;;;;;;;3.25;0.60;;;7.20;99.90;;;;;;5005776;28;20054;-78
2021/05/13 04:00:39;;;;;;;2.25;0.55;;;7.10;99.90;;;;;;4989998;28;20057;-79
2021/05/13 04:03:08;;;;;;;1.63;0.52;;;7.10;99.90;;;;;;5006013;28;20084;-78
2021/05/13 04:05:54;;;;;;;3.15;0.68;;;7.20;99.90;;;;;;5022278;28;20042;-78
2021/05/13 04:08:19;;;;;;;1.73;0.50;;;7.20;99.90;;;;;;4967748;28;20101;-79
2021/05/13 04:10:45;;;;;;;3.05;0.68;;;7.10;99.90;;;;;;4984252;28;20038;-79
2021/05/13 04:13:13;;;;;;;2.67;0.82;;;7.00;99.90;;;;;;4968218;28;20113;-79
2021/05/13 04:15:42;;;;;;;3.50;0.77;;;7.00;99.90;;;;;;4968138;28;20027;-79
2021/05/13 04:18:07;;;;;;;1.52;0.50;;;7.00;99.90;;;;;;4967710;28;20062;-79
2021/05/13 04:20:33;;;;;;;1.05;0.40;;;7.00;99.90;;;;;;4983929;28;20045;-79
2021/05/13 04:22:59;;;;;;;1.50;0.50;;;7.00;99.90;;;;;;4968019;28;20035;-79
2021/05/13 04:25:25;;;;;;;3.30;0.50;;;7.00;99.90;;;;;;4967545;28;20035;-79
2021/05/13 04:27:51;;;;;;;1.38;0.50;;;7.00;99.90;;;;;;4967707;28;20031;-79
2021/05/13 04:30:17;;;;;;;1.17;0.40;;;7.00;99.90;;;;;;4967785;28;20114;-79
2021/05/13 04:32:43;;;;;;;2.33;0.60;;;7.00;99.90;;;;;;4967848;28;20039;-79
2021/05/13 04:35:09;;;;;;;1.02;0.32;;;7.10;99.90;;;;;;4967717;28;20042;-79
2021/05/13 04:37:35;;;;;;;0.55;0.30;;;7.10;99.90;;;;;;4983515;28;20043;-79
2021/05/13 04:40:00;;;;;;;0.80;0.20;;;7.20;99.90;;;;;;4967512;28;20053;-79
2021/05/13 04:42:26;;;;;;;1.80;0.57;;;7.20;99.90;;;;;;4967740;28;20039;-79
2021/05/13 04:44:57;;;;;;;1.02;0.30;;;7.30;99.90;;;;;;4975657;28;20030;-78
2021/05/13 04:49:49;;;;;;;0.82;0.40;;;7.50;99.90;;;;;;5018264;28;20042;-79
2021/05/13 04:52:15;;;;;;;1.20;0.35;;;7.60;99.90;;;;;;5007026;28;20041;-79
2021/05/13 04:54:41;;;;;;;1.13;0.30;;;7.70;99.90;;;;;;5023805;28;20030;-79
2021/05/13 04:57:07;;;;;;;0.73;0.20;;;7.80;99.90;;;;;;5007232;28;20464;-79
2021/05/13 04:59:33;;;;;;;1.25;0.30;;;7.90;99.90;;;;;;5025141;28;20026;-79
2021/05/13 05:01:58;;;;;;;0.70;0.20;;;7.90;99.90;;;;;;5023947;28;20446;-79
2021/05/13 05:04:24;;;;;;;0.80;0.30;;;8.00;99.90;;;;;;5023877;28;20034;-79
2021/05/13 05:06:50;;;;;;;0.95;0.38;;;8.10;99.90;;;;;;5006940;28;20029;-79
2021/05/13 05:09:15;;;;;;;1.88;0.43;;;8.10;99.90;;;;;;5039925;28;20098;-79
2021/05/13 05:11:41;;;;;;;2.55;0.70;;;8.20;99.90;;;;;;5023704;28;20034;-79
2021/05/13 05:14:06;;;;;;;1.40;0.52;;;8.20;99.90;;;;;;5024041;28;20057;-79
2021/05/13 05:16:32;;;;;;;2.65;0.52;;;8.30;99.90;;;;;;5023449;28;20551;-79
2021/05/13 05:18:58;;;;;;;2.85;0.50;;;8.40;99.90;;;;;;5036923;28;20056;-79
2021/05/13 05:21:23;;;;;;;1.45;0.60;;;8.40;99.90;;;;;;5023617;28;20026;-79
2021/05/13 05:23:49;;;;;;;2.70;0.50;;;8.40;99.90;;;;;;5023168;28;20084;-79
2021/05/13 05:26:14;;;;;;;1.25;0.55;;;8.50;99.90;;;;;;5005061;28;20041;-79
2021/05/13 05:28:40;;;;;;;1.38;0.60;;;8.60;99.90;;;;;;5007430;28;20022;-79
2021/05/13 05:31:05;;;;;;;2.33;0.50;;;8.70;99.90;;;;;;5010494;28;20026;-79
2021/05/13 05:33:31;;;;;;;1.67;0.50;;;8.70;99.90;;;;;;5017859;28;20030;-79
2021/05/13 05:35:57;;;;;;;1.65;0.60;;;8.90;99.90;;;;;;5011669;28;20049;-79
2021/05/13 05:38:22;;;;;;;3.00;0.65;;;9.00;99.90;;;;;;5008249;28;20521;-79
2021/05/13 05:40:48;;;;;;;1.30;0.60;;;9.10;99.90;;;;;;5003981;28;20101;-79
2021/05/13 05:43:14;;;;;;;2.08;0.70;;;9.10;99.90;;;;;;4987659;28;20047;-79
2021/05/13 05:45:40;;;;;;;1.90;0.57;;;9.20;99.90;;;;;;5003679;28;20026;-79
2021/05/13 05:48:06;;;;;;;2.95;0.88;;;9.30;99.90;;;;;;5011623;28;20045;-79
2021/05/13 05:50:38;;;;;;;1.80;0.90;;;9.50;99.90;;;;;;5031981;28;20053;-79
2021/05/13 05:53:04;;;;;;;2.97;1.10;;;9.50;99.90;;;;;;5026386;28;20061;-79
2021/05/13 05:55:32;;;;;;;1.42;0.73;;;9.60;99.90;;;;;;5026626;28;20025;-79
2021/05/13 05:57:59;;;;;;;2.17;1.10;;;9.80;99.90;;;;;;5026473;28;20105;-80
2021/05/13 06:00:26;;;;;;;2.15;0.80;;;9.80;99.90;;;;;;5044465;28;20053;-79
2021/05/13 06:02:52;;;;;;;1.70;0.95;;;10.00;99.90;;;;;;5009896;28;20034;-79
2021/05/13 06:05:17;;;;;;;2.88;1.08;;;10.00;99.90;;;;;;5029457;28;20030;-79
2021/05/13 06:07:43;;;;;;;1.75;0.77;;;10.10;99.90;;;;;;5047491;28;20041;-79
2021/05/13 06:10:12;;;;;;;1.60;0.88;;;10.10;99.90;;;;;;5013458;28;20045;-79
2021/05/13 06:12:39;;;;;;;1.80;1.00;;;10.20;99.90;;;;;;5029942;28;20481;-80
2021/05/13 06:15:07;;;;;;;3.42;2.10;;;10.40;99.90;;;;;;5030071;28;20041;-79
2021/05/13 06:17:34;;;;;;;1.85;0.95;;;10.30;99.90;;;;;;5013311;28;20037;-79
2021/05/13 06:20:02;;;;;;;2.70;2.42;;;10.40;99.90;;;;;;5013543;28;20036;-80
2021/05/13 06:22:29;;;;;;;3.92;3.25;;;10.30;99.90;;;;;;5013323;28;20025;-80
2021/05/13 06:24:56;;;;;;;4.45;3.90;;;10.30;99.90;;;;;;5026402;28;20049;-79
2021/05/13 06:27:21;;;;;;;5.25;4.03;;;10.60;99.90;;;;;;5025139;28;20395;-79
2021/05/13 06:29:48;;;;;;;6.43;4.30;;;10.90;99.90;;;;;;5029643;28;20029;-79
2021/05/13 06:32:14;;;;;;;4.93;4.40;;;11.10;99.90;;;;;;5013231;28;20532;-79
2021/05/13 06:34:39;;;;;;;5.18;3.53;;;11.20;99.90;;;;;;5013414;28;20021;-78
2021/05/13 06:37:05;;;;;;;4.60;3.63;;;11.40;99.90;;;;;;5029301;28;20466;-79
2021/05/13 06:39:32;;;;;;;5.03;4.10;;;11.30;99.90;;;;;;5029597;28;20029;-79
2021/05/13 06:42:03;;;;;;;4.50;4.10;;;11.40;99.90;;;;;;5012509;28;20034;-79
2021/05/13 06:44:29;;;;;;;4.55;4.15;;;11.40;99.90;;;;;;5009095;28;20030;-79
2021/05/13 06:46:55;;;;;;;5.70;4.57;;;11.20;99.90;;;;;;5008488;28;20179;-79
2021/05/13 06:49:21;;;;;;;6.45;5.00;;;11.30;99.90;;;;;;5009595;28;20421;-79
2021/05/13 06:51:46;;;;;;;6.35;5.68;;;11.50;99.90;;;;;;5009636;28;20109;-79
2021/05/13 06:54:12;;;;;;;6.40;5.03;;;11.60;99.90;;;;;;4993316;28;20072;-78
2021/05/13 06:56:38;;;;;;;10.85;7.18;;;11.20;99.90;;;;;;5009176;28;20061;-79
2021/05/13 06:59:04;;;;;;;7.53;5.90;;;11.30;99.90;;;;;;5029808;28;20136;-78
2021/05/13 07:01:30;;;;;;;5.88;5.13;;;11.30;99.90;;;;;;5013024;28;20138;-79
2021/05/13 07:03:55;;;;;;;8.35;6.90;;;11.00;99.90;;;;;;5026030;28;20605;-78
2021/05/13 07:06:21;;;;;;;9.98;8.27;;;11.30;99.90;;;;;;5027425;28;20034;-78
2021/05/13 07:08:47;;;;;;;8.40;6.63;;;11.40;99.90;;;;;;5012404;28;20030;-78
2021/05/13 07:11:12;;;;;;;7.43;6.38;;;11.80;99.90;;;;;;5028875;28;20021;-78
2021/05/13 07:13:38;;;;;;;6.03;5.43;;;12.20;99.90;;;;;;5028676;28;20037;-78
2021/05/13 07:16:04;;;;;;;7.53;6.60;;;12.20;99.90;;;;;;5028231;28;20056;-79
2021/05/13 07:18:30;;;;;;;6.93;6.22;;;12.30;99.90;;;;;;5028425;28;20037;-79
2021/05/13 07:20:56;;;;;;;10.10;8.40;;;12.40;99.90;;;;;;5028591;28;20052;-78
2021/05/13 07:23:22;;;;;;;7.30;6.68;;;12.20;99.90;;;;;;5028627;28;20045;-79
2021/05/13 07:25:48;;;;;;;8.95;8.15;;;12.60;99.90;;;;;;5028157;28;20022;-78
2021/05/13 07:28:14;;;;;;;8.00;6.43;;;12.60;99.90;;;;;;5033855;28;20703;-79
2021/05/13 07:30:42;;;;;;;10.10;8.35;;;12.80;99.90;;;;;;5028015;28;20565;-78
2021/05/13 07:33:09;;;;;;;10.75;9.68;;;12.60;99.90;;;;;;5028372;28;20072;-78
2021/05/13 07:35:34;;;;;;;9.55;8.63;;;12.90;99.90;;;;;;5018465;28;20029;-78
2021/05/13 07:38:00;;;;;;;11.75;7.50;;;13.30;99.90;;;;;;5028061;28;20041;-78
2021/05/13 07:40:27;;;;;;;12.68;11.38;;;13.20;99.90;;;;;;5028344;28;20037;-80
2021/05/13 07:42:54;;;;;;;13.27;10.18;;;12.80;99.90;;;;;;5016929;28;20069;-79
2021/05/13 07:45:20;;;;;;;11.98;10.70;;;12.80;99.90;;;;;;5012035;28;20060;-79
2021/05/13 07:47:46;;;;;;;10.02;8.95;;;13.30;99.90;;;;;;5028041;28;20037;-79
2021/05/13 07:50:20;;;;;;;12.35;10.73;;;13.70;99.90;;;;;;5027996;28;20145;-79
2021/05/13 07:52:47;;;;;;;12.98;11.77;;;14.00;99.90;;;;;;5011715;28;20037;-78
2021/05/13 07:55:13;;;;;;;11.75;10.55;;;14.00;99.90;;;;;;5027564;28;20036;-79
2021/05/13 07:57:39;;;;;;;15.05;13.45;;;14.40;99.90;;;;;;5028977;28;20139;-79
2021/05/13 08:00:08;;;;;;;15.45;11.98;;;14.00;99.90;;;;;;5013091;28;20404;-79
2021/05/13 08:02:39;;;;;;;11.52;9.95;;;14.10;99.90;;;;;;5045582;28;20033;-79
2021/05/13 08:05:05;;;;;;;11.80;10.60;;;14.40;99.90;;;;;;5027162;28;20037;-80
2021/05/13 08:07:31;;;;;;;17.42;15.10;;;14.00;99.90;;;;;;5027216;28;20120;-78
2021/05/13 08:09:56;;;;;;;20.80;18.55;;;13.90;99.90;;;;;;5027750;28;20029;-79
2021/05/13 08:12:22;;;;;;;19.15;17.20;;;13.90;99.90;;;;;;5027148;28;20026;-78
2021/05/13 08:14:48;;;;;;;16.98;15.07;;;14.40;99.90;;;;;;5022636;28;20044;-78
2021/05/13 08:17:14;;;;;;;20.33;18.08;;;15.00;99.90;;;;;;5044799;28;20041;-78
2021/05/13 08:19:39;;;;;;;17.05;15.25;;;15.10;99.90;;;;;;5027455;28;20257;-78
2021/05/13 08:22:06;;;;;;;12.68;11.05;;;15.70;99.90;;;;;;5027508;28;20116;-78
2021/05/13 08:24:32;;;;;;;11.70;10.55;;;15.70;99.90;;;;;;5024063;28;20026;-78
2021/05/13 08:27:01;;;;;;;16.60;14.77;;;15.70;99.90;;;;;;5006875;28;20029;-79
2021/05/13 08:29:30;;;;;;;20.92;18.83;;;15.60;99.90;;;;;;5007461;28;20026;-78
2021/05/13 08:31:56;;;;;;;14.23;12.68;;;15.50;99.90;;;;;;5007990;28;20038;-79
2021/05/13 08:34:22;;;;;;;23.50;19.98;;;15.70;99.90;;;;;;4991500;28;20038;-79
2021/05/13 08:36:48;;;;;;;21.85;19.45;;;15.20;99.90;;;;;;5007252;28;20085;-78
2021/05/13 08:39:14;;;;;;;19.80;17.67;;;15.60;99.90;;;;;;5007520;28;20716;-78
2021/05/13 08:41:40;;;;;;;23.67;21.10;;;16.00;99.90;;;;;;5007876;28;20050;-78
2021/05/13 08:44:09;;;;;;;17.50;15.57;;;16.00;99.90;;;;;;4991149;28;20033;-79
2021/05/13 08:46:36;;;;;;;20.25;17.65;;;16.30;99.90;;;;;;5007498;28;20038;-78
2021/05/13 08:49:03;;;;;;;20.67;18.58;;;16.20;99.90;;;;;;5007186;28;20072;-79
2021/05/13 08:51:28;;;;;;;21.48;19.17;;;16.80;99.90;;;;;;5007498;28;20038;-78
2021/05/13 08:53:56;;;;;;;22.25;20.02;;;16.30;99.90;;;;;;5007509;28;20037;-79
2021/05/13 08:56:27;;;;;;;21.77;19.60;;;16.30;99.90;;;;;;5024990;28;20030;-78
2021/05/13 08:58:54;;;;;;;20.55;18.40;;;16.30;99.90;;;;;;5023785;28;20041;-78
2021/05/13 09:01:22;;;;;;;19.38;16.73;;;16.80;99.90;;;;;;5024912;28;20258;-79
2021/05/13 09:03:49;;;;;;;18.30;16.52;;;17.10;99.90;;;;;;5007402;28;20489;-79
2021/05/13 09:06:26;;;;;;;20.83;18.27;;;17.50;99.90;;;;;;5008427;28;20041;-78
2021/05/13 09:08:52;;;;;;;17.67;15.82;;;17.60;99.90;;;;;;5044576;28;20060;-79
2021/05/13 09:11:18;;;;;;;21.85;19.67;;;17.80;99.90;;;;;;5026858;28;20064;-79
2021/05/13 09:13:57;;;;;;;17.08;14.75;;;17.60;99.90;;;;;;5010638;28;20033;-79
2021/05/13 09:16:26;;;;;;;18.60;16.50;;;17.70;99.90;;;;;;5044461;28;20106;-78
2021/05/13 09:18:53;;;;;;;15.25;13.75;;;17.90;99.90;;;;;;5010400;28;20124;-79
2021/05/13 09:21:19;;;;;;;18.75;16.95;;;17.50;99.90;;;;;;5010616;28;20033;-78
2021/05/13 09:23:45;;;;;;;16.00;14.35;;;17.40;99.90;;;;;;5010208;28;20068;-79
2021/05/13 09:26:17;;;;;;;16.60;14.90;;;18.00;99.90;;;;;;5026852;28;20044;-79
2021/05/13 09:28:46;;;;;;;18.63;16.73;;;18.20;99.90;;;;;;5026670;28;20045;-79
2021/05/13 09:31:36;;;;;;;17.45;15.65;;;18.40;99.90;;;;;;5044478;28;20041;-80
2021/05/13 09:34:06;;;;;;;17.45;15.60;;;18.60;99.90;;;;;;5044669;28;20075;-79
2021/05/13 09:36:32;;;;;;;23.77;21.30;;;18.80;99.90;;;;;;5026380;28;20119;-79
2021/05/13 09:38:58;;;;;;;24.98;22.27;;;18.20;99.90;;;;;;5028946;28;20080;-79
2021/05/13 09:41:32;;;;;;;20.58;18.40;;;17.70;99.90;;;;;;5048406;28;20056;-80
2021/05/13 09:43:58;;;;;;;15.65;14.18;;;18.20;99.90;;;;;;5030593;28;20068;-79
2021/05/13 09:46:34;;;;;;;13.55;12.25;;;18.80;99.90;;;;;;5013873;28;20033;-79
2021/05/13 09:48:59;;;;;;;13.88;12.48;;;18.90;99.90;;;;;;5047911;28;20041;-79
2021/05/13 09:51:37;;;;;;;15.98;14.38;;;19.00;99.90;;;;;;5014071;28;20025;-80
2021/05/13 09:54:17;;;;;;;11.80;10.60;;;19.00;99.90;;;;;;5013937;28;20160;-79
2021/05/13 09:56:46;;;;;;;12.15;11.05;;;19.20;99.90;;;;;;5013738;28;20059;-79
2021/05/13 09:59:27;;;;;;;10.05;9.05;;;18.90;99.90;;;;;;5030056;28;20033;-79
2021/05/13 10:02:03;;;;;;;7.45;6.75;;;19.10;99.90;;;;;;5030124;28;20038;-80
2021/05/13 10:04:29;;;;;;;9.93;8.95;;;19.20;99.90;;;;;;5013599;28;20036;-79
2021/05/13 10:06:56;;;;;;;8.00;7.20;;;18.40;99.90;;;;;;5002309;28;20413;-79
2021/05/13 10:09:22;;;;;;;7.05;6.07;;;19.00;99.90;;;;;;5013475;28;20034;-79
2021/05/13 10:11:53;;;;;;;4.85;3.42;;;18.90;99.90;;;;;;5013650;28;20071;-80
2021/05/13 10:14:19;;;;;;;6.53;4.35;;;19.60;99.90;;;;;;5030063;28;20025;-80
2021/05/13 10:16:47;;;;;;;5.85;3.97;;;19.10;99.90;;;;;;5047434;28;20033;-79
2021/05/13 10:19:34;;;;;;;5.47;5.03;;;19.20;99.90;;;;;;5013572;28;20029;-79
2021/05/13 10:22:01;;;;;;;4.47;3.80;;;19.30;99.90;;;;;;5013511;28;20041;-79
2021/05/13 10:24:27;;;;;;;6.22;4.25;;;19.50;99.90;;;;;;5046295;28;20128;-79
2021/05/13 10:26:54;;;;;;;5.28;4.78;;;19.80;99.90;;;;;;5047624;28;20033;-79
2021/05/13 10:29:22;;;;;;;3.38;2.33;;;19.50;99.90;;;;;;5047491;28;20037;-79
2021/05/13 10:32:02;;;;;;;4.47;2.40;;;19.80;99.90;;;;;;5047482;28;20025;-79
2021/05/13 10:34:40;;;;;;;4.80;4.20;;;19.10;99.90;;;;;;5029629;28;20037;-79
2021/05/13 10:37:39;;;;;;;9.05;8.25;;;19.50;99.90;;;;;;5029287;28;20041;-79
2021/05/13 10:40:16;;;;;;;8.70;7.85;;;19.60;99.90;;;;;;5010979;28;20542;-80
2021/05/13 10:42:43;;;;;;;8.82;6.82;;;19.60;99.90;;;;;;5030164;28;20043;-80
2021/05/13 10:45:36;;;;;;;4.88;4.45;;;19.60;99.90;;;;;;5013655;28;20036;-79
2021/05/13 10:48:26;;;;;;;5.32;4.47;;;20.20;99.90;;;;;;5011228;28;20048;-80
2021/05/13 10:51:04;;;;;;;;;;;20.20;99.90;;;;;;5012507;28;20041;-80
2021/05/13 10:53:36;;;;;;;5.72;5.22;;;20.00;99.90;;;;;;5029479;28;19919;-80
2021/05/13 10:56:29;;;;;;;7.30;6.50;;;20.20;99.90;;;;;;5029041;28;20025;-81
2021/05/13 10:59:10;;;;;;;13.40;11.77;;;20.20;99.90;;;;;;5047084;28;20046;-80
2021/05/13 11:01:45;;;;;;;10.18;8.77;;;18.80;99.90;;;;;;5029014;28;20044;-80
2021/05/13 11:04:20;;;;;;;7.47;6.60;;;18.50;99.90;;;;;;5029165;28;20506;-80
2021/05/13 11:07:24;;;;;;;10.25;8.48;;;18.90;99.90;;;;;;5028707;28;20025;-80
2021/05/13 11:09:57;;;;;;;10.65;9.55;;;18.70;99.90;;;;;;5024009;28;20048;-80
2021/05/13 11:12:42;;;;;;;7.35;6.55;;;18.80;99.90;;;;;;5028986;28;20033;-80
2021/05/13 11:15:16;;;;;;;9.18;8.10;;;18.50;99.90;;;;;;5045233;28;20048;-80
2021/05/13 11:20:23;;;;;;;9.20;8.23;;;17.70;99.90;;;;;;5046415;28;20025;-80
2021/05/13 11:22:53;;;;;;;10.35;7.72;;;17.90;99.90;;;;;;5012446;28;20381;-80
2021/05/13 11:25:19;;;;;;;9.80;7.20;;;17.60;99.90;;;;;;5025234;28;20032;-79
2021/05/13 11:27:46;;;;;;;12.18;9.18;;;17.50;99.90;;;;;;5026273;28;20034;-80
2021/05/13 11:30:13;;;;;;;10.00;8.27;;;17.40;99.90;;;;;;5008857;28;20056;-79
2021/05/13 11:32:38;;;;;;;8.75;7.03;;;17.70;99.90;;;;;;5026290;28;20026;-79
2021/05/13 11:35:05;;;;;;;7.63;6.57;;;18.20;99.90;;;;;;5026494;28;20048;-80
2021/05/13 11:37:36;;;;;;;8.18;5.72;;;18.00;99.90;;;;;;5008207;28;20049;-79
2021/05/13 11:40:26;;;;;;;5.50;4.22;;;18.30;99.90;;;;;;5008589;28;20029;-80
2021/05/13 11:43:11;;;;;;;;;;;18.40;99.90;;;;;;5009228;28;20030;-79
2021/05/13 11:45:38;;;;;;;6.40;5.70;;;18.90;99.90;;;;;;5008532;28;19980;-80
2021/05/13 11:48:25;;;;;;;6.10;4.68;;;19.00;99.90;;;;;;5008323;28;20034;-80
2021/05/13 11:50:51;;;;;;;8.25;6.50;;;18.90;99.90;;;;;;5026427;28;20045;-79
2021/05/13 11:53:18;;;;;;;5.50;4.82;;;19.20;99.90;;;;;;5026233;28;20033;-80
2021/05/13 11:55:45;;;;;;;5.00;3.53;;;19.30;99.90;;;;;;5008701;28;20057;-80
2021/05/13 11:58:12;;;;;;;4.35;3.95;;;20.00;99.90;;;;;;5008174;28;20556;-80
2021/05/13 12:00:40;;;;;;;4.28;3.88;;;20.30;99.90;;;;;;5026204;28;20033;-80
2021/05/13 12:03:12;;;;;;;4.22;3.78;;;20.30;99.90;;;;;;5007915;28;20061;-80
2021/05/13 12:05:58;;;;;;;4.28;3.83;;;20.20;99.90;;;;;;5044836;28;20033;-79
2021/05/13 12:08:24;;;;;;;4.30;3.58;;;20.20;99.90;;;;;;4955089;29;20039;-80
2021/05/13 12:10:51;;;;;;;3.83;3.03;;;20.80;99.90;;;;;;4948833;29;20063;-80
2021/05/13 12:13:17;;;;;;;2.65;2.03;;;21.30;99.90;;;;;;4948108;29;20035;-80
2021/05/13 12:15:43;;;;;;;2.78;1.85;;;21.00;99.90;;;;;;4948849;29;20035;-80
2021/05/13 12:18:09;;;;;;;3.70;2.15;;;20.80;99.90;;;;;;4964806;29;20217;-80
2021/05/13 12:20:37;;;;;;;3.88;2.88;;;21.10;99.90;;;;;;4948434;29;20047;-80
2021/05/13 12:23:05;;;;;;;6.18;4.20;;;21.10;99.90;;;;;;4948880;29;20035;-80
2021/05/13 12:25:32;;;;;;;2.47;2.25;;;20.60;99.90;;;;;;4948619;29;20508;-80
2021/05/13 12:27:58;;;;;;;3.90;2.58;;;21.30;99.90;;;;;;4964565;29;20185;-80
2021/05/13 12:30:24;;;;;;;5.88;3.83;;;21.00;99.90;;;;;;4948598;29;20085;-80
2021/05/13 12:32:50;;;;;;;4.47;2.55;;;20.00;99.90;;;;;;4964508;29;20067;-80
2021/05/13 12:35:31;;;;;;;3.92;2.33;;;20.50;99.90;;;;;;4964473;29;20582;-80
2021/05/13 12:38:13;;;;;;;3.55;1.73;;;20.30;99.90;;;;;;4947972;29;20070;-80
2021/05/13 12:40:39;;;;;;;3.25;1.52;;;20.00;99.80;;;;;;4964585;29;20035;-80
2021/05/13 12:43:09;;;;;;;3.05;1.90;;;20.40;99.90;;;;;;4964503;29;20035;-80
2021/05/13 12:45:47;;;;;;;3.35;1.20;;;21.00;99.50;;;;;;4997127;28;20042;-80
2021/05/13 12:48:29;;;;;;;2.38;1.20;;;21.50;98.60;;;;;;4991230;28;20037;-81
2021/05/13 12:51:05;;;;;;;2.45;1.63;;;21.80;99.90;;;;;;5007049;28;20050;-80
2021/05/13 12:53:32;;;;;;;3.22;1.08;;;21.70;98.70;;;;;;5007494;28;20034;-80
2021/05/13 12:55:58;;;;;;;2.83;1.13;;;21.40;98.00;;;;;;5014327;28;20032;-80
2021/05/13 12:58:26;;;;;;;3.92;1.38;;;21.70;96.90;;;;;;5044472;28;20105;-80
2021/05/13 13:00:56;;;;;;;2.95;1.10;;;21.20;95.40;;;;;;5010386;28;20045;-80
2021/05/13 13:03:41;;;;;;;3.15;1.73;;;21.10;97.10;;;;;;5021658;28;20096;-80
2021/05/13 13:06:12;;;;;;;3.47;1.88;;;20.00;96.90;;;;;;5026549;28;20057;-79